createdAt,value
2023-03-14T00:02:28.672Z,100.00
2023-03-14T00:05:16.330Z,100.00
2023-03-14T00:08:03.946Z,100.00
2023-03-14T00:10:51.610Z,100.00
2023-03-14T00:13:39.567Z,100.00
2023-03-14T00:16:28.990Z,100.00
2023-03-14T00:19:17.075Z,100.00
2023-03-14T00:22:04.801Z,100.00
2023-03-14T00:24:52.435Z,100.00
2023-03-14T00:27:40.438Z,100.00
2023-03-14T00:30:28.108Z,100.00
2023-03-14T00:33:15.800Z,100.00
2023-03-14T00:36:06.787Z,100.00
2023-03-14T00:38:54.618Z,100.00
2023-03-14T00:41:42.146Z,100.00
2023-03-14T00:44:29.897Z,100.00
2023-03-14T00:47:18.337Z,100.00
2023-03-14T00:50:06.632Z,100.00
2023-03-14T00:52:54.271Z,100.00
2023-03-14T00:55:46.164Z,100.00
2023-03-14T00:58:33.866Z,100.00
2023-03-14T01:01:24.318Z,100.00
2023-03-14T01:04:12.346Z,100.00
2023-03-14T01:06:59.993Z,100.00
2023-03-14T01:09:47.632Z,100.00
2023-03-14T01:12:36.179Z,100.00
2023-03-14T01:15:23.850Z,100.00
2023-03-14T01:18:11.643Z,100.00
2023-03-14T01:20:59.770Z,100.00
2023-03-14T01:23:48.451Z,100.00
2023-03-14T01:26:36.744Z,100.00
2023-03-14T01:29:26.774Z,100.00
2023-03-14T01:32:14.901Z,100.00
2023-03-14T01:35:02.643Z,100.00
2023-03-14T01:37:51.272Z,100.00
2023-03-14T01:40:46.126Z,100.00
2023-03-14T01:43:34.892Z,100.00
2023-03-14T01:46:45.469Z,100.00
2023-03-14T01:49:37.600Z,100.00
2023-03-14T01:52:36.398Z,100.00
2023-03-14T01:55:26.946Z,100.00
2023-03-14T01:58:16.097Z,100.00
2023-03-14T02:01:05.577Z,100.00
2023-03-14T02:03:57.569Z,100.00
2023-03-14T02:06:52.747Z,100.00
2023-03-14T02:09:45.335Z,100.00
2023-03-14T02:12:40.448Z,100.00
2023-03-14T02:15:34.404Z,100.00
2023-03-14T02:18:27.644Z,100.00
2023-03-14T02:22:13.904Z,100.00
2023-03-14T02:25:17.142Z,100.00
2023-03-14T02:28:05.837Z,100.00
2023-03-14T02:30:54.693Z,100.00
2023-03-14T02:33:42.572Z,100.00
2023-03-14T02:36:31.420Z,100.00
2023-03-14T02:39:29.257Z,100.00
2023-03-14T02:42:17.988Z,100.00
2023-03-14T02:45:08.904Z,100.00
2023-03-14T02:48:07.652Z,100.00
2023-03-14T02:51:00.172Z,100.00
2023-03-14T02:53:48.866Z,100.00
2023-03-14T02:56:39.655Z,100.00
2023-03-14T02:59:28.653Z,100.00
2023-03-14T03:02:19.918Z,100.00
2023-03-14T03:05:07.813Z,100.00
2023-03-14T03:07:55.628Z,100.00
2023-03-14T03:10:43.228Z,100.00
2023-03-14T03:13:30.981Z,100.00
2023-03-14T03:16:20.112Z,100.00
2023-03-14T03:19:07.953Z,100.00
2023-03-14T03:21:55.559Z,100.00
2023-03-14T03:24:50.416Z,100.00
2023-03-14T03:27:39.400Z,100.00
2023-03-14T03:30:27.137Z,100.00
2023-03-14T03:33:15.065Z,100.00
2023-03-14T03:36:06.002Z,100.00
2023-03-14T03:38:57.112Z,100.00
2023-03-14T03:41:45.560Z,100.00
2023-03-14T03:44:33.610Z,100.00
2023-03-14T03:47:22.454Z,100.00
2023-03-14T03:50:11.055Z,100.00
2023-03-14T03:52:58.892Z,100.00
2023-03-14T03:55:47.082Z,100.00
2023-03-14T03:58:35.232Z,100.00
2023-03-14T04:01:23.827Z,100.00
2023-03-14T04:04:15.231Z,100.00
2023-03-14T04:07:06.223Z,100.00
2023-03-14T04:09:53.974Z,100.00
2023-03-14T04:13:04.318Z,100.00
2023-03-14T04:15:55.534Z,100.00
2023-03-14T04:18:46.297Z,100.00
2023-03-14T04:21:34.252Z,100.00
2023-03-14T04:24:22.368Z,100.00
2023-03-14T04:27:11.282Z,100.00
2023-03-14T04:29:58.995Z,100.00
2023-03-14T04:33:05.616Z,100.00
2023-03-14T04:35:56.734Z,100.00
2023-03-14T04:38:45.674Z,100.00
2023-03-14T04:49:56.875Z,100.00
2023-03-14T04:52:46.049Z,100.00
2023-03-14T04:55:34.339Z,100.00
2023-03-14T04:58:24.082Z,100.00
2023-03-14T05:01:13.855Z,100.00
2023-03-14T05:04:09.541Z,100.00
2023-03-14T05:07:13.838Z,100.00
2023-03-14T05:10:16.315Z,100.00
2023-03-14T05:13:29.319Z,100.00
2023-03-14T05:16:39.999Z,100.00
2023-03-14T05:19:38.484Z,100.00
2023-03-14T05:22:46.567Z,100.00
2023-03-14T05:25:54.403Z,100.00
2023-03-14T05:29:02.347Z,100.00
2023-03-14T05:32:00.045Z,100.00
2023-03-14T05:35:06.771Z,100.00
2023-03-14T05:38:16.861Z,100.00
2023-03-14T05:41:27.550Z,100.00
2023-03-14T05:44:41.295Z,100.00
2023-03-14T05:47:35.204Z,100.00
2023-03-14T05:50:58.607Z,100.00
2023-03-14T05:53:58.984Z,100.00
2023-03-14T05:57:19.157Z,100.00
2023-03-14T06:00:26.197Z,100.00
2023-03-14T06:03:34.671Z,100.00
2023-03-14T06:06:22.524Z,100.00
2023-03-14T06:09:12.671Z,100.00
2023-03-14T06:12:03.667Z,100.00
2023-03-14T06:14:57.029Z,100.00
2023-03-14T06:17:44.882Z,100.00
2023-03-14T06:20:36.392Z,100.00
2023-03-14T06:23:24.896Z,100.00
2023-03-14T06:26:12.999Z,100.00
2023-03-14T06:29:04.566Z,100.00
2023-03-14T06:31:53.924Z,100.00
2023-03-14T06:34:42.034Z,100.00
2023-03-14T06:37:30.600Z,100.00
2023-03-14T06:40:19.610Z,100.00
2023-03-14T06:43:27.429Z,100.00
2023-03-14T06:46:17.031Z,100.00
2023-03-14T06:49:07.226Z,100.00
2023-03-14T06:51:55.047Z,100.00
2023-03-14T06:54:42.975Z,100.00
2023-03-14T06:57:30.916Z,100.00
2023-03-14T07:00:19.201Z,100.00
2023-03-14T07:03:07.360Z,100.00
2023-03-14T07:05:59.216Z,100.00
2023-03-14T07:08:49.753Z,100.00
2023-03-14T07:11:38.733Z,100.00
2023-03-14T07:14:26.636Z,100.00
2023-03-14T07:17:15.101Z,100.00
2023-03-14T07:20:07.384Z,100.00
2023-03-14T07:22:56.138Z,100.00
2023-03-14T07:25:56.234Z,100.00
2023-03-14T07:28:46.724Z,100.00
2023-03-14T07:31:38.233Z,100.00
2023-03-14T07:34:28.480Z,100.00
2023-03-14T07:37:18.042Z,100.00
2023-03-14T07:40:08.438Z,100.00
2023-03-14T07:42:58.724Z,100.00
2023-03-14T07:46:02.209Z,100.00
2023-03-14T07:48:50.084Z,100.00
2023-03-14T07:51:37.832Z,100.00
2023-03-14T07:54:28.360Z,100.00
2023-03-14T07:57:18.686Z,100.00
2023-03-14T08:00:07.193Z,100.00
2023-03-14T08:03:00.735Z,100.00
2023-03-14T08:05:49.459Z,98.32
2023-03-14T08:08:37.016Z,96.57
2023-03-14T08:11:24.794Z,100.00
2023-03-14T08:14:12.577Z,100.00
2023-03-14T08:17:00.343Z,100.00
2023-03-14T08:19:48.429Z,100.00
2023-03-14T08:22:36.145Z,100.00
2023-03-14T08:25:23.905Z,100.00
2023-03-14T08:28:11.692Z,98.02
2023-03-14T08:30:59.441Z,96.04
2023-03-14T08:33:47.118Z,90.87
2023-03-14T08:36:35.276Z,95.54
2023-03-14T08:39:23.084Z,94.21
2023-03-14T08:42:10.800Z,90.38
2023-03-14T08:44:58.509Z,95.61
2023-03-14T08:47:46.488Z,95.28
2023-03-14T08:50:35.203Z,92.37
2023-03-14T08:53:23.830Z,93.51
2023-03-14T08:56:11.651Z,92.64
2023-03-14T08:58:59.350Z,91.74
2023-03-14T09:01:46.996Z,92.55
2023-03-14T09:04:34.780Z,89.70
2023-03-14T09:07:22.550Z,87.36
2023-03-14T09:10:11.102Z,93.28
2023-03-14T09:12:59.547Z,84.26
2023-03-14T09:15:52.324Z,87.19
2023-03-14T09:18:40.041Z,81.96
2023-03-14T09:21:28.790Z,79.64
2023-03-14T09:24:17.613Z,77.64
2023-03-14T09:27:09.663Z,84.33
2023-03-14T09:29:57.217Z,76.02
2023-03-14T09:32:45.238Z,73.38
2023-03-14T09:35:35.853Z,75.19
2023-03-14T09:38:24.423Z,72.09
2023-03-14T09:41:43.195Z,72.92
2023-03-14T09:44:33.976Z,69.18
2023-03-14T09:47:22.786Z,70.41
2023-03-14T09:50:19.052Z,67.79
2023-03-14T09:53:13.437Z,63.61
2023-03-14T09:56:01.055Z,62.36
2023-03-14T09:59:01.381Z,63.32
2023-03-14T10:01:49.119Z,64.47
2023-03-14T10:04:37.443Z,62.60
2023-03-14T10:07:34.626Z,61.31
2023-03-14T10:10:26.157Z,63.16
2023-03-14T10:13:27.235Z,64.79
2023-03-14T10:16:20.068Z,62.49
2023-03-14T10:19:21.259Z,63.19
2023-03-14T10:22:34.941Z,62.92
2023-03-14T10:25:30.054Z,58.75
2023-03-14T10:28:32.264Z,60.93
2023-03-14T10:31:22.868Z,58.35
2023-03-14T10:34:18.148Z,57.77
2023-03-14T10:37:28.814Z,56.67
2023-03-14T10:40:18.782Z,56.48
2023-03-14T10:43:16.753Z,55.34
2023-03-14T10:46:15.770Z,56.11
2023-03-14T10:53:05.048Z,55.01
2023-03-14T10:55:57.897Z,54.13
2023-03-14T10:58:48.292Z,53.03
2023-03-14T11:01:42.083Z,53.02
2023-03-14T11:04:37.219Z,55.22
2023-03-14T11:07:45.929Z,53.64
2023-03-14T11:10:44.280Z,55.02
2023-03-14T11:13:38.442Z,53.60
2023-03-14T11:16:56.584Z,54.23
2023-03-14T11:19:53.297Z,54.50
2023-03-14T11:23:02.469Z,54.24
2023-03-14T11:26:01.011Z,52.75
2023-03-14T11:28:58.558Z,53.34
2023-03-14T11:31:47.690Z,54.20
2023-03-14T11:34:49.362Z,52.52
2023-03-14T11:37:49.275Z,56.10
2023-03-14T11:40:40.591Z,52.19
2023-03-14T11:43:38.338Z,56.53
2023-03-14T11:47:00.636Z,55.41
2023-03-14T11:50:09.112Z,52.89
2023-03-14T11:53:05.882Z,52.46
2023-03-14T11:55:55.003Z,51.86
2023-03-14T11:58:56.175Z,52.03
2023-03-14T12:01:55.076Z,51.70
2023-03-14T12:04:51.605Z,49.82
2023-03-14T12:08:12.469Z,52.36
2023-03-14T12:11:05.945Z,47.64
2023-03-14T12:13:54.807Z,48.44
2023-03-14T12:16:47.058Z,50.73
2023-03-14T12:19:37.782Z,46.88
2023-03-14T12:22:43.093Z,49.27
2023-03-14T12:25:34.722Z,48.70
2023-03-14T12:28:32.632Z,49.71
2023-03-14T12:31:32.695Z,49.76
2023-03-14T12:34:20.764Z,49.22
2023-03-14T12:37:34.439Z,49.36
2023-03-14T12:40:32.874Z,50.64
2023-03-14T12:43:30.119Z,49.57
2023-03-14T12:46:29.095Z,50.33
2023-03-14T12:49:16.976Z,50.96
2023-03-14T12:52:20.451Z,49.58
2023-03-14T12:55:42.093Z,50.19
2023-03-14T12:58:36.496Z,50.60
2023-03-14T13:01:24.181Z,49.99
2023-03-14T13:04:13.411Z,48.99
2023-03-14T13:07:03.785Z,49.58
2023-03-14T13:09:55.950Z,49.68
2023-03-14T13:12:56.790Z,50.13
2023-03-14T13:15:47.419Z,50.12
2023-03-14T13:18:43.532Z,49.72
2023-03-14T13:21:36.627Z,51.13
2023-03-14T13:24:27.386Z,50.97
2023-03-14T13:27:22.901Z,49.88
2023-03-14T13:30:21.916Z,51.54
2023-03-14T13:33:18.427Z,51.25
2023-03-14T13:36:07.298Z,51.63
2023-03-14T13:39:00.575Z,50.73
2023-03-14T13:41:49.613Z,52.36
2023-03-14T13:44:42.410Z,52.24
2023-03-14T13:47:30.949Z,50.71
2023-03-14T13:50:19.912Z,50.67
2023-03-14T13:53:12.769Z,51.66
2023-03-14T13:56:04.938Z,52.04
2023-03-14T13:58:53.666Z,52.97
2023-03-14T14:01:49.623Z,52.94
2023-03-14T14:04:38.696Z,53.95
2023-03-14T14:07:26.489Z,51.82
2023-03-14T14:10:15.158Z,52.07
2023-03-14T14:13:05.216Z,52.33
2023-03-14T14:15:55.834Z,52.17
2023-03-14T14:18:43.706Z,53.31
2023-03-14T14:21:32.941Z,52.82
2023-03-14T14:24:24.900Z,52.08
2023-03-14T14:27:17.985Z,52.93
2023-03-14T14:30:25.801Z,53.64
2023-03-14T14:33:23.596Z,52.51
2023-03-14T14:36:22.062Z,52.39
2023-03-14T14:39:22.831Z,52.28
2023-03-14T14:42:19.885Z,51.99
2023-03-14T14:45:16.548Z,52.52
2023-03-14T14:48:11.717Z,53.70
2023-03-14T14:51:05.143Z,52.41
2023-03-14T14:54:20.696Z,52.65
2023-03-14T14:57:19.752Z,53.12
2023-03-14T15:00:13.717Z,53.79
2023-03-14T15:03:01.810Z,52.60
2023-03-14T15:05:49.690Z,53.25
2023-03-14T15:08:39.225Z,52.74
2023-03-14T15:11:28.058Z,53.84
2023-03-14T15:14:15.828Z,52.52
2023-03-14T15:17:04.169Z,53.40
2023-03-14T15:19:51.810Z,52.54
2023-03-14T15:22:39.433Z,53.90
2023-03-14T15:25:51.532Z,52.49
2023-03-14T15:28:35.908Z,53.60
2023-03-14T15:31:24.015Z,53.56
2023-03-14T15:34:11.756Z,54.89
2023-03-14T15:36:59.426Z,53.19
2023-03-14T15:39:47.184Z,54.42
2023-03-14T15:42:34.943Z,54.30
2023-03-14T15:45:22.637Z,55.01
2023-03-14T15:48:22.430Z,56.07
2023-03-14T15:51:10.079Z,55.43
2023-03-14T15:53:57.990Z,56.69
2023-03-14T15:56:45.845Z,56.79
2023-03-14T15:59:33.707Z,56.83
2023-03-14T16:02:21.350Z,56.79
2023-03-14T16:05:13.480Z,57.76
2023-03-14T16:08:02.543Z,57.94
2023-03-14T16:10:50.363Z,57.98
2023-03-14T16:13:39.069Z,58.17
2023-03-14T16:16:26.760Z,58.58
2023-03-14T16:19:14.601Z,58.78
2023-03-14T16:22:02.377Z,58.63
2023-03-14T16:24:52.331Z,58.91
2023-03-14T16:27:40.211Z,59.26
2023-03-14T16:30:27.997Z,61.20
2023-03-14T16:33:17.086Z,60.08
2023-03-14T16:36:08.800Z,60.63
2023-03-14T16:38:56.611Z,60.85
2023-03-14T16:41:50.492Z,62.05
2023-03-14T16:44:38.162Z,60.32
2023-03-14T16:47:25.997Z,61.94
2023-03-14T16:50:16.307Z,62.10
2023-03-14T16:53:03.957Z,62.48
2023-03-14T16:55:52.001Z,61.61
2023-03-14T16:58:40.243Z,63.20
2023-03-14T17:01:27.983Z,62.36
2023-03-14T17:04:15.947Z,63.09
2023-03-14T17:07:03.851Z,63.72
2023-03-14T17:09:52.087Z,64.40
2023-03-14T17:12:39.801Z,64.29
2023-03-14T17:15:27.444Z,66.17
2023-03-14T17:18:15.168Z,66.41
2023-03-14T17:21:03.887Z,67.82
2023-03-14T17:23:51.751Z,67.60
2023-03-14T17:26:39.409Z,68.09
2023-03-14T17:29:27.051Z,66.96
2023-03-14T17:32:16.130Z,67.02
2023-03-14T17:35:04.097Z,66.11
2023-03-14T17:37:51.961Z,68.35
2023-03-14T17:40:39.806Z,70.89
2023-03-14T17:43:27.649Z,70.60
2023-03-14T17:46:17.188Z,71.95
2023-03-14T17:49:04.965Z,71.74
2023-03-14T17:51:52.873Z,71.88
2023-03-14T17:54:40.898Z,73.50
2023-03-14T17:57:29.434Z,74.60
2023-03-14T18:00:17.985Z,74.83
2023-03-14T18:03:06.329Z,74.21
2023-03-14T18:05:57.077Z,74.96
2023-03-14T18:08:46.771Z,75.71
2023-03-14T18:11:34.548Z,74.90
2023-03-14T18:14:22.213Z,75.72
2023-03-14T18:17:12.987Z,76.98
2023-03-14T18:20:00.780Z,78.90
2023-03-14T18:22:48.528Z,81.66
2023-03-14T18:25:36.243Z,82.14
2023-03-14T18:28:23.944Z,82.12
2023-03-14T18:31:13.575Z,84.34
2023-03-14T18:34:01.884Z,84.87
2023-03-14T18:36:50.022Z,84.10
2023-03-14T18:39:37.746Z,84.95
2023-03-14T18:42:25.597Z,85.67
2023-03-14T18:45:13.735Z,86.46
2023-03-14T18:48:02.332Z,86.62
2023-03-14T18:51:15.415Z,88.99
2023-03-14T18:54:09.572Z,88.77
2023-03-14T18:57:00.532Z,89.25
2023-03-14T18:59:48.420Z,89.62
2023-03-14T19:02:39.063Z,91.23
2023-03-14T19:05:37.418Z,91.94
2023-03-14T19:08:42.398Z,92.69
2023-03-14T19:11:30.083Z,90.54
2023-03-14T19:14:20.434Z,90.97
2023-03-14T19:17:08.133Z,93.28
2023-03-14T19:19:57.093Z,92.47
2023-03-14T19:22:47.810Z,92.34
2023-03-14T19:25:35.821Z,93.52
2023-03-14T19:28:24.544Z,94.55
2023-03-14T19:31:12.254Z,95.35
2023-03-14T19:34:00.114Z,96.88
2023-03-14T19:36:47.825Z,98.67
2023-03-14T19:39:35.579Z,98.14
2023-03-14T19:42:23.261Z,98.19
2023-03-14T19:45:11.967Z,98.22
2023-03-14T19:48:04.322Z,98.41
2023-03-14T19:50:52.046Z,97.22
2023-03-14T19:53:39.965Z,100.00
2023-03-14T19:56:27.690Z,100.00
2023-03-14T19:59:15.480Z,100.00
2023-03-14T20:02:03.312Z,100.00
2023-03-14T20:04:54.700Z,100.00
2023-03-14T20:07:42.984Z,100.00
2023-03-14T20:10:31.148Z,100.00
2023-03-14T20:13:22.275Z,100.00
2023-03-14T20:16:10.939Z,100.00
2023-03-14T20:18:58.680Z,100.00
2023-03-14T20:21:46.413Z,100.00
2023-03-14T20:24:34.383Z,100.00
2023-03-14T20:27:22.122Z,100.00
2023-03-14T20:30:13.111Z,100.00
2023-03-14T20:33:04.849Z,100.00
2023-03-14T20:35:57.747Z,100.00
2023-03-14T20:38:45.432Z,100.00
2023-03-14T20:41:33.218Z,100.00
2023-03-14T20:44:20.953Z,100.00
2023-03-14T20:47:08.683Z,100.00
2023-03-14T20:49:56.621Z,100.00
2023-03-14T20:52:45.513Z,100.00
2023-03-14T20:55:33.216Z,100.00
2023-03-14T20:58:20.826Z,100.00
2023-03-14T21:01:09.278Z,100.00
2023-03-14T21:03:57.023Z,100.00
2023-03-14T21:06:46.245Z,100.00
2023-03-14T21:09:34.067Z,100.00
2023-03-14T21:12:24.866Z,100.00
2023-03-14T21:15:15.495Z,100.00
2023-03-14T21:18:05.890Z,100.00
2023-03-14T21:20:55.209Z,100.00
2023-03-14T21:23:45.098Z,100.00
2023-03-14T21:26:33.064Z,100.00
2023-03-14T21:29:21.861Z,100.00
2023-03-14T21:32:10.961Z,100.00
2023-03-14T21:34:58.793Z,100.00
2023-03-14T21:37:46.682Z,100.00
2023-03-14T21:40:34.628Z,100.00
2023-03-14T21:43:27.134Z,100.00
2023-03-14T21:46:20.579Z,100.00
2023-03-14T21:49:11.480Z,100.00
2023-03-14T21:51:59.079Z,100.00
2023-03-14T21:54:51.958Z,100.00
2023-03-14T21:57:42.022Z,100.00
2023-03-14T22:00:29.802Z,100.00
2023-03-14T22:03:19.153Z,100.00
2023-03-14T22:06:08.422Z,100.00
2023-03-14T22:08:56.163Z,100.00
2023-03-14T22:11:43.973Z,100.00
2023-03-14T22:14:31.787Z,100.00
2023-03-14T22:17:20.653Z,100.00
2023-03-14T22:20:10.830Z,100.00
2023-03-14T22:22:58.568Z,100.00
2023-03-14T22:25:49.880Z,100.00
2023-03-14T22:28:37.650Z,100.00
2023-03-14T22:31:25.274Z,100.00
2023-03-14T22:34:13.023Z,100.00
2023-03-14T22:37:02.482Z,100.00
2023-03-14T22:39:50.149Z,100.00
2023-03-14T22:42:40.079Z,100.00
2023-03-14T22:45:28.242Z,100.00
2023-03-14T22:48:16.010Z,100.00
2023-03-14T22:51:11.736Z,100.00
2023-03-14T22:53:59.520Z,100.00
2023-03-14T22:56:47.209Z,100.00
2023-03-14T22:59:35.128Z,100.00
2023-03-14T23:02:22.873Z,100.00
2023-03-14T23:05:10.844Z,100.00
2023-03-14T23:07:58.539Z,100.00
2023-03-14T23:10:46.811Z,100.00
2023-03-14T23:13:35.409Z,100.00
2023-03-14T23:16:34.165Z,100.00
2023-03-14T23:19:29.283Z,100.00
2023-03-14T23:22:16.983Z,100.00
2023-03-14T23:25:05.103Z,100.00
2023-03-14T23:27:54.390Z,100.00
2023-03-14T23:30:42.149Z,100.00
2023-03-14T23:33:29.865Z,100.00
2023-03-14T23:36:22.481Z,100.00
2023-03-14T23:39:11.390Z,100.00
2023-03-14T23:41:59.083Z,100.00
2023-03-14T23:44:46.903Z,100.00
2023-03-14T23:47:34.874Z,100.00
2023-03-14T23:50:25.698Z,100.00
2023-03-14T23:53:13.781Z,100.00
2023-03-14T23:56:01.662Z,100.00
2023-03-14T23:58:51.619Z,100.00
